createdAt,value
2023-05-31T00:01:42.391Z,7.53
2023-05-31T00:04:09.514Z,7.07
2023-05-31T00:06:36.782Z,6.80
2023-05-31T00:09:04.355Z,6.87
2023-05-31T00:11:31.338Z,6.50
2023-05-31T00:13:58.323Z,6.73
2023-05-31T00:16:52.698Z,6.67
2023-05-31T00:19:12.433Z,6.37
2023-05-31T00:21:39.510Z,5.73
2023-05-31T00:24:06.835Z,6.33
2023-05-31T00:26:33.897Z,5.87
2023-05-31T00:29:01.020Z,6.10
2023-05-31T00:31:28.143Z,5.90
2023-05-31T00:33:55.125Z,6.37
2023-05-31T00:36:22.505Z,5.87
2023-05-31T00:38:49.872Z,4.83
2023-05-31T00:41:18.068Z,6.10
2023-05-31T00:43:45.094Z,5.50
2023-05-31T00:46:26.581Z,5.27
2023-05-31T00:48:54.260Z,5.53
2023-05-31T00:51:21.936Z,5.57
2023-05-31T00:53:49.259Z,6.00
2023-05-31T00:56:16.918Z,5.90
2023-05-31T00:58:46.397Z,6.43
2023-05-31T01:01:14.991Z,6.27
2023-05-31T01:03:42.696Z,6.53
2023-05-31T01:06:10.951Z,5.53
2023-05-31T01:08:39.520Z,5.73
2023-05-31T01:11:33.072Z,5.80
2023-05-31T01:14:16.071Z,5.83
2023-05-31T01:16:48.427Z,5.87
2023-05-31T01:19:42.123Z,5.97
2023-05-31T01:22:21.731Z,5.73
2023-05-31T01:25:07.475Z,5.93
2023-05-31T01:27:35.662Z,5.60
2023-05-31T01:30:05.800Z,5.50
2023-05-31T01:32:34.234Z,6.17
2023-05-31T01:35:04.344Z,6.10
2023-05-31T01:37:31.350Z,6.00
2023-05-31T01:39:59.779Z,6.10
2023-05-31T01:42:27.423Z,5.47
2023-05-31T01:44:56.068Z,5.47
2023-05-31T01:47:23.822Z,5.70
2023-05-31T01:49:53.551Z,5.40
2023-05-31T01:52:22.144Z,5.93
2023-05-31T01:54:49.304Z,5.50
2023-05-31T01:57:17.391Z,5.47
2023-05-31T01:59:47.392Z,5.67
2023-05-31T02:02:14.599Z,5.20
2023-05-31T02:04:42.337Z,6.13
2023-05-31T02:07:10.734Z,5.60
2023-05-31T02:09:37.792Z,5.13
2023-05-31T02:12:06.231Z,6.37
2023-05-31T02:14:33.261Z,6.40
2023-05-31T02:17:00.273Z,5.67
2023-05-31T02:19:27.509Z,6.30
2023-05-31T02:21:54.466Z,5.77
2023-05-31T02:24:21.408Z,7.37
2023-05-31T02:26:48.322Z,6.83
2023-05-31T02:29:15.320Z,5.83
2023-05-31T02:31:42.477Z,5.53
2023-05-31T02:34:10.624Z,5.70
2023-05-31T02:36:37.629Z,6.57
2023-05-31T02:39:06.083Z,6.53
2023-05-31T02:41:33.926Z,6.37
2023-05-31T02:44:00.909Z,6.27
2023-05-31T02:46:27.903Z,5.97
2023-05-31T02:48:54.865Z,4.60
2023-05-31T02:51:21.872Z,6.07
2023-05-31T02:54:07.375Z,6.20
2023-05-31T02:56:37.415Z,6.50
2023-05-31T02:59:13.579Z,5.13
2023-05-31T03:01:43.072Z,6.30
2023-05-31T03:04:26.695Z,5.90
2023-05-31T03:06:56.950Z,6.20
2023-05-31T03:09:23.994Z,5.20
2023-05-31T03:11:51.358Z,5.90
2023-05-31T03:14:20.562Z,6.37
2023-05-31T03:16:51.282Z,5.33
2023-05-31T03:19:18.615Z,5.20
2023-05-31T03:21:49.343Z,6.17
2023-05-31T03:24:16.376Z,5.93
2023-05-31T03:26:45.222Z,6.17
2023-05-31T03:29:12.476Z,5.60
2023-05-31T03:31:39.439Z,6.20
2023-05-31T03:34:07.159Z,6.63
2023-05-31T03:36:34.129Z,6.50
2023-05-31T03:39:07.160Z,6.33
2023-05-31T03:41:34.200Z,5.97
2023-05-31T03:44:01.207Z,6.23
2023-05-31T03:46:28.649Z,5.87
2023-05-31T03:48:56.338Z,6.50
2023-05-31T03:51:24.784Z,6.73
2023-05-31T03:53:51.807Z,6.90
2023-05-31T03:56:18.828Z,5.67
2023-05-31T03:58:45.970Z,5.30
2023-05-31T04:01:14.833Z,4.50
2023-05-31T04:03:42.073Z,5.87
2023-05-31T04:06:09.467Z,5.60
2023-05-31T04:08:36.629Z,6.77
2023-05-31T04:11:04.140Z,5.97
2023-05-31T04:13:31.440Z,6.73
2023-05-31T04:15:58.670Z,6.67
2023-05-31T04:18:25.694Z,6.80
2023-05-31T04:20:52.972Z,6.53
2023-05-31T04:23:19.922Z,7.20
2023-05-31T04:25:47.204Z,7.67
2023-05-31T04:28:16.313Z,9.10
2023-05-31T04:30:45.628Z,7.28
2023-05-31T04:33:13.409Z,7.10
2023-05-31T04:35:41.576Z,6.88
2023-05-31T04:38:09.306Z,7.53
2023-05-31T04:40:36.387Z,5.55
2023-05-31T04:43:04.018Z,5.82
2023-05-31T04:45:33.937Z,6.50
2023-05-31T04:48:03.076Z,6.95
2023-05-31T04:50:31.306Z,8.48
2023-05-31T04:52:59.127Z,10.02
2023-05-31T04:55:27.419Z,12.88
2023-05-31T04:57:55.332Z,11.43
2023-05-31T05:00:22.287Z,8.68
2023-05-31T05:03:10.080Z,8.70
2023-05-31T05:05:38.611Z,8.73
2023-05-31T05:08:05.771Z,6.95
2023-05-31T05:10:32.718Z,8.48
2023-05-31T05:12:59.759Z,7.05
2023-05-31T05:15:26.790Z,6.43
2023-05-31T05:17:53.768Z,6.75
2023-05-31T05:20:21.989Z,7.05
2023-05-31T05:22:53.161Z,6.10
2023-05-31T05:25:23.930Z,6.10
2023-05-31T05:27:51.288Z,5.47
2023-05-31T05:30:19.409Z,7.00
2023-05-31T05:32:48.255Z,5.90
2023-05-31T05:35:15.313Z,5.70
2023-05-31T05:37:42.301Z,5.78
2023-05-31T05:40:09.729Z,7.05
2023-05-31T05:42:39.966Z,7.00
2023-05-31T05:45:08.279Z,5.80
2023-05-31T05:47:38.320Z,6.55
2023-05-31T05:50:06.715Z,6.40
2023-05-31T05:52:33.799Z,6.43
2023-05-31T05:55:01.034Z,5.45
2023-05-31T05:57:29.006Z,5.70
2023-05-31T06:00:12.112Z,6.65
2023-05-31T06:02:42.043Z,6.70
2023-05-31T06:05:09.773Z,5.60
2023-05-31T06:07:36.853Z,5.63
2023-05-31T06:10:04.386Z,5.32
2023-05-31T06:12:34.153Z,5.53
2023-05-31T06:15:01.427Z,5.63
2023-05-31T06:17:28.518Z,5.78
2023-05-31T06:19:55.614Z,5.75
2023-05-31T06:22:22.617Z,5.13
2023-05-31T06:24:50.933Z,5.63
2023-05-31T06:27:18.077Z,5.32
2023-05-31T06:29:45.904Z,5.28
2023-05-31T06:32:31.411Z,5.55
2023-05-31T06:34:58.709Z,5.65
2023-05-31T06:37:25.661Z,5.43
2023-05-31T06:39:54.397Z,5.30
2023-05-31T06:42:22.800Z,5.10
2023-05-31T06:44:58.961Z,5.43
2023-05-31T06:47:54.983Z,5.05
2023-05-31T06:50:45.489Z,5.60
2023-05-31T06:53:30.987Z,5.00
2023-05-31T06:56:21.042Z,5.85
2023-05-31T06:58:49.246Z,5.78
2023-05-31T07:01:16.351Z,5.20
2023-05-31T07:03:43.461Z,5.25
2023-05-31T07:06:10.509Z,5.82
2023-05-31T07:08:38.456Z,4.32
2023-05-31T07:11:24.455Z,5.38
2023-05-31T07:13:51.664Z,4.85
2023-05-31T07:16:20.254Z,4.45
2023-05-31T07:18:48.550Z,4.80
2023-05-31T07:21:16.851Z,5.00
2023-05-31T07:23:43.868Z,4.53
2023-05-31T07:26:10.942Z,4.32
2023-05-31T07:28:38.303Z,4.18
2023-05-31T07:31:05.722Z,3.70
2023-05-31T07:33:32.988Z,3.65
2023-05-31T07:36:01.927Z,3.83
2023-05-31T07:38:29.734Z,3.20
2023-05-31T07:40:57.239Z,3.60
2023-05-31T07:43:27.782Z,3.38
2023-05-31T07:45:55.890Z,2.85
2023-05-31T07:48:23.081Z,3.47
2023-05-31T07:50:50.421Z,3.50
2023-05-31T07:53:17.812Z,3.08
2023-05-31T07:55:45.878Z,2.83
2023-05-31T07:58:13.087Z,3.00
2023-05-31T08:00:40.663Z,2.75
2023-05-31T08:03:07.845Z,2.70
2023-05-31T08:05:35.102Z,2.58
2023-05-31T08:08:02.083Z,3.08
2023-05-31T08:10:30.976Z,2.65
2023-05-31T08:12:57.974Z,2.63
2023-05-31T08:15:25.080Z,2.67
2023-05-31T08:17:52.171Z,2.72
2023-05-31T08:20:19.305Z,2.53
2023-05-31T08:22:46.510Z,5.35
2023-05-31T08:25:15.338Z,2.50
2023-05-31T08:27:42.427Z,2.42
2023-05-31T08:30:13.352Z,2.60
2023-05-31T08:32:44.171Z,2.15
2023-05-31T08:35:11.433Z,2.40
2023-05-31T08:37:39.069Z,2.90
2023-05-31T08:40:06.916Z,2.17
2023-05-31T08:42:53.163Z,2.55
2023-05-31T08:45:20.791Z,2.17
2023-05-31T08:47:56.843Z,2.33
2023-05-31T08:50:25.318Z,1.92
2023-05-31T08:52:52.466Z,1.90
2023-05-31T08:55:20.247Z,4.43
2023-05-31T08:57:47.766Z,2.33
2023-05-31T09:00:15.437Z,2.60
2023-05-31T09:02:42.845Z,2.40
2023-05-31T09:05:12.529Z,2.58
2023-05-31T09:07:40.182Z,2.33
2023-05-31T09:10:10.102Z,2.55
2023-05-31T09:12:38.058Z,2.28
2023-05-31T09:15:06.895Z,3.20
2023-05-31T09:17:34.093Z,2.53
2023-05-31T09:20:02.176Z,2.50
2023-05-31T09:22:29.280Z,2.47
2023-05-31T09:25:01.240Z,2.70
2023-05-31T09:27:37.046Z,2.40
2023-05-31T09:30:12.986Z,2.10
2023-05-31T09:32:40.698Z,2.20
2023-05-31T09:35:14.377Z,2.30
2023-05-31T09:37:45.544Z,2.70
2023-05-31T09:40:15.318Z,2.33
2023-05-31T09:42:50.066Z,2.10
2023-05-31T09:45:17.552Z,2.38
2023-05-31T09:47:45.021Z,1.88
2023-05-31T09:50:12.961Z,2.20
2023-05-31T09:52:40.025Z,2.30
2023-05-31T09:55:08.529Z,2.50
2023-05-31T09:57:41.906Z,2.13
2023-05-31T10:00:16.478Z,2.13
2023-05-31T10:02:54.408Z,2.10
2023-05-31T10:05:22.213Z,2.42
2023-05-31T10:07:54.217Z,2.33
2023-05-31T10:10:21.862Z,2.40
2023-05-31T10:13:00.674Z,2.47
2023-05-31T10:15:33.274Z,2.42
2023-05-31T10:18:08.244Z,2.30
2023-05-31T10:20:42.230Z,2.60
2023-05-31T10:23:21.244Z,2.10
2023-05-31T10:26:09.230Z,2.20
2023-05-31T10:28:44.827Z,2.38
2023-05-31T10:31:13.023Z,2.70
2023-05-31T10:33:46.313Z,2.40
2023-05-31T10:36:13.738Z,1.83
2023-05-31T10:38:51.018Z,2.80
2023-05-31T10:41:25.971Z,1.92
2023-05-31T10:44:00.487Z,2.00
2023-05-31T10:46:29.241Z,1.95
2023-05-31T10:49:00.890Z,2.80
2023-05-31T10:51:48.038Z,1.98
2023-05-31T10:54:20.448Z,2.25
2023-05-31T10:56:56.328Z,2.13
2023-05-31T10:59:30.486Z,2.40
2023-05-31T11:02:00.877Z,2.67
2023-05-31T11:04:28.307Z,2.17
2023-05-31T11:07:12.785Z,2.25
2023-05-31T11:09:40.800Z,1.98
2023-05-31T11:12:08.046Z,1.63
2023-05-31T11:14:35.552Z,2.00
2023-05-31T11:17:05.356Z,2.13
2023-05-31T11:19:35.124Z,2.60
2023-05-31T11:22:08.604Z,2.55
2023-05-31T11:24:39.147Z,2.70
2023-05-31T11:27:11.520Z,2.88
2023-05-31T11:29:53.811Z,2.20
2023-05-31T11:32:43.850Z,3.08
2023-05-31T11:35:15.441Z,2.70
2023-05-31T11:37:44.068Z,3.20
2023-05-31T11:40:14.225Z,3.03
2023-05-31T11:42:46.222Z,3.08
2023-05-31T11:45:21.583Z,2.88
2023-05-31T11:48:00.654Z,2.90
2023-05-31T11:50:27.821Z,2.53
2023-05-31T11:52:56.184Z,2.03
2023-05-31T11:55:23.200Z,2.47
2023-05-31T11:57:52.974Z,2.75
2023-05-31T12:00:22.573Z,2.70
2023-05-31T12:03:05.531Z,2.60
2023-05-31T12:05:32.705Z,2.33
2023-05-31T12:07:59.978Z,2.20
2023-05-31T12:10:28.857Z,2.38
2023-05-31T12:12:58.245Z,2.17
2023-05-31T12:15:30.803Z,2.28
2023-05-31T12:18:01.639Z,2.40
2023-05-31T12:20:32.167Z,2.35
2023-05-31T12:23:13.444Z,2.17
2023-05-31T12:25:51.147Z,2.30
2023-05-31T12:28:19.577Z,2.53
2023-05-31T12:30:52.722Z,2.60
2023-05-31T12:33:20.506Z,2.13
2023-05-31T12:35:48.552Z,2.10
2023-05-31T12:38:16.537Z,2.45
2023-05-31T12:40:45.337Z,2.13
2023-05-31T12:43:15.464Z,2.92
2023-05-31T12:45:43.181Z,2.45
2023-05-31T12:48:13.822Z,2.25
2023-05-31T12:50:47.857Z,1.98
2023-05-31T12:53:16.168Z,2.30
2023-05-31T12:55:44.050Z,2.08
2023-05-31T12:58:11.644Z,2.00
2023-05-31T13:00:40.130Z,2.33
2023-05-31T13:03:14.419Z,2.17
2023-05-31T13:05:41.799Z,2.00
2023-05-31T13:08:08.832Z,2.45
2023-05-31T13:10:37.351Z,2.05
2023-05-31T13:13:06.181Z,2.55
2023-05-31T13:15:33.380Z,2.30
2023-05-31T13:18:00.566Z,2.20
2023-05-31T13:20:27.634Z,2.95
2023-05-31T13:22:55.996Z,2.15
2023-05-31T13:25:25.280Z,2.35
2023-05-31T13:27:52.319Z,2.60
2023-05-31T13:30:19.429Z,2.45
2023-05-31T13:32:46.771Z,2.40
2023-05-31T13:35:13.849Z,2.60
2023-05-31T13:37:41.024Z,2.95
2023-05-31T13:40:08.536Z,2.47
2023-05-31T13:42:35.727Z,2.70
2023-05-31T13:45:02.672Z,2.58
2023-05-31T13:47:29.642Z,2.13
2023-05-31T13:49:56.687Z,2.20
2023-05-31T13:52:23.741Z,2.53
2023-05-31T13:54:50.667Z,2.97
2023-05-31T13:57:17.766Z,2.45
2023-05-31T13:59:44.819Z,2.60
2023-05-31T14:02:11.891Z,2.40
2023-05-31T14:04:38.908Z,2.58
2023-05-31T14:07:06.390Z,2.28
2023-05-31T14:09:33.386Z,2.10
2023-05-31T14:12:00.863Z,2.47
2023-05-31T14:14:27.970Z,2.53
2023-05-31T14:16:55.197Z,2.50
2023-05-31T14:19:22.403Z,2.38
2023-05-31T14:21:49.366Z,2.55
2023-05-31T14:24:17.036Z,2.25
2023-05-31T14:26:44.107Z,2.45
2023-05-31T14:29:11.112Z,2.40
2023-05-31T14:31:38.455Z,2.60
2023-05-31T14:34:05.872Z,2.50
2023-05-31T14:36:33.242Z,2.30
2023-05-31T14:39:00.720Z,2.53
2023-05-31T14:41:27.876Z,2.20
2023-05-31T14:43:54.887Z,2.00
2023-05-31T14:46:21.981Z,2.50
2023-05-31T14:48:49.091Z,2.53
2023-05-31T14:51:16.016Z,2.38
2023-05-31T14:53:42.977Z,2.20
2023-05-31T14:56:17.910Z,2.38
2023-05-31T14:58:47.566Z,2.55
2023-05-31T15:01:15.446Z,1.92
2023-05-31T15:03:42.574Z,2.40
2023-05-31T15:06:09.841Z,3.00
2023-05-31T15:08:37.278Z,2.45
2023-05-31T15:11:04.975Z,2.28
2023-05-31T15:13:32.123Z,2.35
2023-05-31T15:15:59.426Z,2.15
2023-05-31T15:18:26.636Z,2.17
2023-05-31T15:20:54.081Z,2.45
2023-05-31T15:23:21.131Z,2.33
2023-05-31T15:25:48.183Z,2.35
2023-05-31T15:28:15.163Z,2.42
2023-05-31T15:30:42.168Z,2.05
2023-05-31T15:33:09.186Z,2.40
2023-05-31T15:35:36.301Z,2.20
2023-05-31T15:38:03.480Z,2.40
2023-05-31T15:40:30.624Z,2.25
2023-05-31T15:42:57.752Z,2.10
2023-05-31T15:45:24.820Z,2.20
2023-05-31T15:47:51.883Z,2.45
2023-05-31T15:50:20.033Z,2.33
2023-05-31T15:52:47.122Z,2.22
2023-05-31T15:55:14.157Z,2.10
2023-05-31T15:57:41.198Z,1.92
2023-05-31T16:00:08.889Z,2.17
2023-05-31T16:02:38.971Z,2.45
2023-05-31T16:05:08.570Z,2.03
2023-05-31T16:07:35.822Z,2.22
2023-05-31T16:10:03.441Z,1.70
2023-05-31T16:12:30.551Z,2.17
2023-05-31T16:14:59.809Z,2.35
2023-05-31T16:17:26.891Z,2.03
2023-05-31T16:19:53.992Z,2.05
2023-05-31T16:22:21.111Z,2.22
2023-05-31T16:24:48.331Z,1.90
2023-05-31T16:27:15.802Z,1.80
2023-05-31T16:29:42.779Z,2.80
2023-05-31T16:32:10.165Z,6.95
2023-05-31T16:34:37.115Z,1.73
2023-05-31T16:37:04.975Z,2.22
2023-05-31T16:39:32.726Z,1.60
2023-05-31T16:42:00.129Z,1.85
2023-05-31T16:44:27.121Z,1.98
2023-05-31T16:46:54.334Z,1.80
2023-05-31T16:49:21.414Z,1.70
2023-05-31T16:51:48.448Z,1.65
2023-05-31T16:54:15.410Z,1.83
2023-05-31T16:56:42.463Z,2.05
2023-05-31T16:59:10.200Z,1.67
2023-05-31T17:01:37.259Z,1.67
2023-05-31T17:04:04.256Z,1.65
2023-05-31T17:06:31.379Z,1.80
2023-05-31T17:08:58.726Z,2.13
2023-05-31T17:11:27.401Z,1.65
2023-05-31T17:13:54.400Z,1.63
2023-05-31T17:16:21.435Z,2.28
2023-05-31T17:18:48.562Z,1.65
2023-05-31T17:21:16.174Z,2.20
2023-05-31T17:23:43.197Z,2.03
2023-05-31T17:26:10.127Z,1.80
2023-05-31T17:28:37.020Z,1.73
2023-05-31T17:31:04.835Z,1.50
2023-05-31T17:33:31.790Z,1.48
2023-05-31T17:36:00.328Z,2.10
2023-05-31T17:38:27.722Z,1.50
2023-05-31T17:40:54.669Z,1.90
2023-05-31T17:43:21.641Z,1.70
2023-05-31T17:45:50.552Z,1.52
2023-05-31T17:48:17.713Z,1.60
2023-05-31T17:50:44.712Z,1.90
2023-05-31T17:53:11.724Z,1.83
2023-05-31T17:55:38.993Z,1.85
2023-05-31T17:58:06.156Z,1.80
2023-05-31T18:00:33.088Z,1.80
2023-05-31T18:03:00.219Z,1.65
2023-05-31T18:05:27.254Z,1.85
2023-05-31T18:07:54.322Z,1.67
2023-05-31T18:10:21.388Z,1.90
2023-05-31T18:12:48.657Z,1.60
2023-05-31T18:15:16.001Z,1.90
2023-05-31T18:17:43.161Z,1.60
2023-05-31T18:20:10.489Z,1.80
2023-05-31T18:22:37.424Z,1.85
2023-05-31T18:25:04.694Z,1.77
2023-05-31T18:27:32.968Z,1.90
2023-05-31T18:30:00.241Z,2.08
2023-05-31T18:32:28.285Z,1.70
2023-05-31T18:34:55.444Z,1.67
2023-05-31T18:37:23.493Z,1.70
2023-05-31T18:39:50.534Z,1.60
2023-05-31T18:42:17.919Z,1.73
2023-05-31T18:44:46.886Z,1.90
2023-05-31T18:47:14.033Z,1.52
2023-05-31T18:49:41.007Z,1.83
2023-05-31T18:52:08.043Z,2.13
2023-05-31T18:54:35.006Z,1.75
2023-05-31T18:57:03.129Z,1.60
2023-05-31T18:59:31.053Z,2.13
2023-05-31T19:02:00.469Z,1.75
2023-05-31T19:04:27.798Z,1.60
2023-05-31T19:06:55.989Z,1.77
2023-05-31T19:09:23.371Z,1.85
2023-05-31T19:11:50.535Z,1.70
2023-05-31T19:14:17.946Z,1.80
2023-05-31T19:16:45.522Z,1.60
2023-05-31T19:19:13.709Z,1.90
2023-05-31T19:21:40.913Z,1.83
2023-05-31T19:24:08.419Z,1.98
2023-05-31T19:26:35.903Z,1.58
2023-05-31T19:29:04.153Z,1.98
2023-05-31T19:31:31.737Z,1.83
2023-05-31T19:34:00.059Z,2.20
2023-05-31T19:36:27.279Z,1.73
2023-05-31T19:38:54.404Z,1.90
2023-05-31T19:41:21.532Z,1.83
2023-05-31T19:43:48.702Z,1.90
2023-05-31T19:46:26.078Z,1.60
2023-05-31T19:48:53.771Z,2.28
2023-05-31T19:51:20.902Z,2.03
2023-05-31T19:53:47.901Z,2.15
2023-05-31T19:56:15.197Z,2.40
2023-05-31T19:58:42.205Z,1.75
2023-05-31T20:01:10.842Z,1.90
2023-05-31T20:03:38.592Z,1.60
2023-05-31T20:06:06.037Z,1.65
2023-05-31T20:08:33.808Z,1.70
2023-05-31T20:11:00.833Z,2.30
2023-05-31T20:13:27.897Z,2.00
2023-05-31T20:15:54.902Z,1.70
2023-05-31T20:18:23.750Z,1.63
2023-05-31T20:20:51.792Z,1.60
2023-05-31T20:23:19.494Z,1.60
2023-05-31T20:25:46.652Z,1.50
2023-05-31T20:28:14.117Z,1.88
2023-05-31T20:30:41.104Z,1.73
2023-05-31T20:33:08.208Z,1.73
2023-05-31T20:35:35.427Z,1.40
2023-05-31T20:38:02.842Z,1.27
2023-05-31T20:40:29.869Z,1.40
2023-05-31T20:42:56.941Z,3.55
2023-05-31T20:45:23.984Z,1.27
2023-05-31T20:47:51.507Z,1.63
2023-05-31T20:50:20.161Z,2.00
2023-05-31T20:52:47.423Z,1.75
2023-05-31T20:55:14.977Z,1.52
2023-05-31T20:57:42.541Z,2.88
2023-05-31T21:00:10.630Z,1.67
2023-05-31T21:02:37.740Z,1.98
2023-05-31T21:05:05.030Z,1.70
2023-05-31T21:07:31.988Z,1.40
2023-05-31T21:09:59.036Z,1.85
2023-05-31T21:12:26.314Z,1.38
2023-05-31T21:14:54.297Z,1.67
2023-05-31T21:17:21.678Z,1.65
2023-05-31T21:19:49.757Z,1.70
2023-05-31T21:22:16.775Z,1.63
2023-05-31T21:24:43.791Z,1.27
2023-05-31T21:27:10.775Z,1.55
2023-05-31T21:29:37.772Z,1.58
2023-05-31T21:32:05.015Z,1.58
2023-05-31T21:34:32.329Z,1.55
2023-05-31T21:36:59.759Z,2.20
2023-05-31T21:39:27.002Z,1.52
2023-05-31T21:41:54.556Z,1.55
2023-05-31T21:44:21.600Z,1.50
2023-05-31T21:46:48.690Z,1.60
2023-05-31T21:49:15.709Z,1.67
2023-05-31T21:51:42.741Z,1.75
2023-05-31T21:54:09.931Z,1.73
2023-05-31T21:56:36.930Z,1.83
2023-05-31T21:59:04.270Z,1.75
2023-05-31T22:01:31.234Z,1.65
2023-05-31T22:03:58.364Z,1.73
2023-05-31T22:06:26.272Z,1.95
2023-05-31T22:08:53.362Z,1.50
2023-05-31T22:11:21.641Z,1.83
2023-05-31T22:13:50.858Z,1.80
2023-05-31T22:16:22.055Z,1.83
2023-05-31T22:18:52.991Z,2.08
2023-05-31T22:21:22.489Z,1.70
2023-05-31T22:23:51.617Z,2.00
2023-05-31T22:26:22.425Z,1.90
2023-05-31T22:28:51.023Z,2.00
2023-05-31T22:31:18.931Z,1.77
2023-05-31T22:33:48.282Z,1.97
2023-05-31T22:36:16.092Z,1.67
2023-05-31T22:38:43.713Z,2.30
2023-05-31T22:41:11.027Z,2.13
2023-05-31T22:43:37.978Z,1.90
2023-05-31T22:46:05.072Z,1.90
2023-05-31T22:48:33.963Z,2.33
2023-05-31T22:51:02.441Z,2.10
2023-05-31T22:53:29.985Z,2.23
2023-05-31T22:55:56.951Z,2.33
2023-05-31T22:58:23.879Z,2.03
2023-05-31T23:00:50.996Z,2.23
2023-05-31T23:03:18.256Z,2.03
2023-05-31T23:05:46.764Z,2.70
2023-05-31T23:08:13.925Z,3.03
2023-05-31T23:10:41.662Z,2.47
2023-05-31T23:13:10.007Z,2.87
2023-05-31T23:15:38.343Z,2.80
2023-05-31T23:18:08.414Z,3.50
2023-05-31T23:20:38.927Z,2.70
2023-05-31T23:23:07.450Z,3.00
2023-05-31T23:25:34.713Z,2.93
2023-05-31T23:28:02.160Z,3.50
2023-05-31T23:30:29.207Z,2.93
2023-05-31T23:32:56.330Z,3.10
2023-05-31T23:35:23.509Z,3.47
2023-05-31T23:37:52.374Z,3.00
2023-05-31T23:40:19.579Z,3.33
2023-05-31T23:42:46.830Z,3.57
2023-05-31T23:45:14.223Z,3.73
2023-05-31T23:47:42.246Z,4.40
2023-05-31T23:50:10.245Z,3.13
2023-05-31T23:52:37.852Z,3.60
2023-05-31T23:55:05.643Z,3.53
2023-05-31T23:57:33.743Z,4.27
